Time;durP1;ratioP1;P1;durP2;ratioP2;P2;SDS_P1;SDS_P2;PMS_P1;PMS_P2;Temp;Humidity;BMP_temperature;BMP_pressure;BME280_temperature;BME280_humidity;BME280_pressure;Samples;Min_cycle;Max_cycle;Signal;HPM_P1;HPM_P2
2021/04/24 00:01:30;;;;;;;16.83;8.47;;;7.50;98.30;;;;;;5095599;23;20459;-83
2021/04/24 00:03:32;;;;;;;19.50;10.40;;;7.50;98.30;;;;;;5105818;23;20995;-83
2021/04/24 00:05:39;;;;;;;15.17;9.43;;;7.60;98.30;;;;;;5104766;23;20461;-83
2021/04/24 00:07:41;;;;;;;14.60;8.20;;;7.60;98.30;;;;;;5105610;23;21003;-87
2021/04/24 00:09:43;;;;;;;15.23;8.73;;;7.40;98.30;;;;;;5091674;23;20852;-83
2021/04/24 00:11:45;;;;;;;16.03;9.03;;;7.30;98.30;;;;;;5100362;23;20534;-86
2021/04/24 00:13:48;;;;;;;12.93;8.23;;;7.30;98.30;;;;;;5107519;23;20530;-83
2021/04/24 00:15:50;;;;;;;13.10;8.90;;;7.30;98.30;;;;;;5102381;23;20460;-83
2021/04/24 00:17:52;;;;;;;14.13;8.20;;;7.40;98.30;;;;;;5102137;23;20451;-83
2021/04/24 00:19:55;;;;;;;18.10;8.83;;;7.40;98.30;;;;;;5100241;23;20447;-85
2021/04/24 00:21:57;;;;;;;13.60;7.73;;;7.40;98.30;;;;;;5099615;23;20444;-84
2021/04/24 00:24:00;;;;;;;14.47;8.13;;;7.40;98.30;;;;;;5091630;23;20455;-84
2021/04/24 00:26:02;;;;;;;18.63;8.97;;;7.20;98.30;;;;;;5101967;23;20533;-83
2021/04/24 00:28:08;;;;;;;18.87;8.83;;;7.20;98.30;;;;;;5101568;23;20479;-83
2021/04/24 00:30:12;;;;;;;14.27;8.60;;;7.20;98.30;;;;;;5100440;23;20533;-82
2021/04/24 00:32:14;;;;;;;20.00;9.53;;;7.20;98.30;;;;;;5101576;23;20478;-82
2021/04/24 00:34:16;;;;;;;12.90;8.67;;;7.20;98.30;;;;;;5101241;23;20482;-83
2021/04/24 00:36:18;;;;;;;17.90;10.30;;;7.20;98.30;;;;;;5101174;23;20544;-82
2021/04/24 00:38:20;;;;;;;13.80;9.37;;;7.10;98.30;;;;;;5093935;23;20543;-83
2021/04/24 00:40:23;;;;;;;13.80;8.90;;;7.10;98.30;;;;;;5101126;23;20446;-82
2021/04/24 00:42:25;;;;;;;13.73;8.10;;;7.00;98.30;;;;;;5100683;23;21337;-83
2021/04/24 00:44:27;;;;;;;12.50;7.00;;;6.90;98.30;;;;;;5101309;23;20975;-83
2021/04/24 00:46:29;;;;;;;19.60;9.20;;;6.90;98.30;;;;;;5101609;23;20460;-83
2021/04/24 00:48:31;;;;;;;11.10;7.90;;;7.00;98.30;;;;;;5093071;23;20932;-83
2021/04/24 00:50:36;;;;;;;13.70;7.40;;;7.10;98.30;;;;;;5099276;23;20485;-82
2021/04/24 00:52:38;;;;;;;15.73;8.83;;;7.10;98.30;;;;;;5101363;23;20482;-83
2021/04/24 00:54:40;;;;;;;17.53;8.20;;;7.10;98.30;;;;;;5092841;23;20541;-83
2021/04/24 00:56:43;;;;;;;17.60;7.80;;;7.10;98.30;;;;;;5093263;23;20459;-83
2021/04/24 00:58:46;;;;;;;11.70;8.23;;;7.10;98.30;;;;;;5100916;23;20459;-83
2021/04/24 01:00:48;;;;;;;15.70;7.50;;;7.10;98.30;;;;;;5099801;23;20451;-82
2021/04/24 01:02:51;;;;;;;14.03;8.33;;;7.10;98.30;;;;;;5100597;23;20533;-82
2021/04/24 01:04:53;;;;;;;11.70;7.20;;;7.10;98.30;;;;;;5092118;23;20458;-83
2021/04/24 01:06:55;;;;;;;15.27;9.30;;;7.00;98.30;;;;;;5100608;23;20768;-83
2021/04/24 01:08:57;;;;;;;14.77;7.97;;;6.90;98.30;;;;;;5092528;23;20458;-83
2021/04/24 01:10:59;;;;;;;11.57;7.90;;;6.90;98.30;;;;;;5092662;23;20466;-85
2021/04/24 01:13:02;;;;;;;12.90;8.07;;;7.00;98.30;;;;;;5092898;23;20542;-83
2021/04/24 01:15:06;;;;;;;17.43;8.90;;;7.00;98.30;;;;;;5093007;23;20547;-84
2021/04/24 01:17:08;;;;;;;9.60;6.83;;;7.00;98.30;;;;;;5102778;23;20451;-85
2021/04/24 01:19:12;;;;;;;12.43;7.53;;;7.00;98.30;;;;;;5106649;23;20451;-83
2021/04/24 01:21:18;;;;;;;12.73;8.60;;;7.00;98.30;;;;;;5092115;23;20463;-83
2021/04/24 01:23:21;;;;;;;13.13;9.00;;;7.00;98.30;;;;;;5097063;23;21270;-83
2021/04/24 01:25:44;;;;;;;14.90;8.10;;;7.00;98.30;;;;;;5104159;23;20512;-83
2021/04/24 01:27:47;;;;;;;11.03;6.10;;;7.00;98.30;;;;;;5099683;23;20458;-83
2021/04/24 01:29:49;;;;;;;13.43;7.47;;;7.00;98.30;;;;;;5099303;23;20458;-83
2021/04/24 01:31:51;;;;;;;10.27;6.73;;;7.00;98.30;;;;;;5100599;23;20478;-83
2021/04/24 01:33:53;;;;;;;10.53;6.47;;;7.00;98.30;;;;;;5100896;23;20443;-83
2021/04/24 01:35:56;;;;;;;13.30;8.13;;;7.00;98.30;;;;;;5093134;23;20462;-82
2021/04/24 01:37:59;;;;;;;12.27;6.57;;;7.00;98.30;;;;;;5093182;23;20481;-83
2021/04/24 01:40:02;;;;;;;10.27;6.33;;;7.10;98.30;;;;;;5091206;23;20835;-83
2021/04/24 01:42:04;;;;;;;12.30;6.90;;;6.90;98.30;;;;;;5090702;23;20477;-83
2021/04/24 01:44:06;;;;;;;17.73;7.33;;;6.90;98.30;;;;;;5092927;23;20967;-83
2021/04/24 01:46:08;;;;;;;16.00;7.50;;;6.90;98.30;;;;;;5101441;23;20446;-84
2021/04/24 01:48:11;;;;;;;16.33;7.73;;;6.90;98.30;;;;;;5101403;23;20485;-83
2021/04/24 01:50:16;;;;;;;12.07;8.07;;;6.90;98.30;;;;;;5099273;23;20501;-84
2021/04/24 01:52:17;;;;;;;14.30;9.30;;;6.90;98.30;;;;;;5098674;23;20813;-84
2021/04/24 01:54:19;;;;;;;15.30;8.40;;;6.80;98.30;;;;;;5099607;23;20536;-83
2021/04/24 01:56:22;;;;;;;12.37;8.53;;;6.80;98.30;;;;;;5102382;23;20533;-83
2021/04/24 01:58:24;;;;;;;11.13;7.93;;;6.90;98.30;;;;;;5101599;23;20513;-82
2021/04/24 02:00:33;;;;;;;12.17;9.03;;;6.90;98.30;;;;;;5099758;23;20534;-83
2021/04/24 02:02:35;;;;;;;13.27;8.07;;;6.80;98.30;;;;;;5101249;23;20450;-83
2021/04/24 02:04:37;;;;;;;14.60;8.73;;;6.90;98.30;;;;;;5101510;23;20971;-84
2021/04/24 02:06:39;;;;;;;13.23;8.60;;;6.80;98.30;;;;;;5101753;23;20454;-84
2021/04/24 02:10:58;;;;;;;16.87;9.53;;;6.20;98.30;;;;;;5078865;23;20470;-81
2021/04/24 02:13:03;;;;;;;19.13;10.33;;;5.90;98.30;;;;;;5075721;23;20450;-81
2021/04/24 02:15:07;;;;;;;18.77;11.17;;;5.70;98.30;;;;;;5067746;23;20460;-80
2021/04/24 02:17:11;;;;;;;19.93;10.30;;;5.50;98.30;;;;;;5066876;23;20462;-82
2021/04/24 02:19:13;;;;;;;19.80;10.07;;;5.40;98.30;;;;;;5074376;23;20447;-81
2021/04/24 02:21:15;;;;;;;14.27;10.02;;;5.30;98.30;;;;;;5064930;23;20478;-81
2021/04/24 02:23:17;;;;;;;16.08;10.73;;;5.30;98.30;;;;;;5065348;23;20204;-81
2021/04/24 02:25:20;;;;;;;16.67;9.90;;;5.30;98.30;;;;;;5066943;23;20725;-81
2021/04/24 02:27:23;;;;;;;17.88;11.00;;;5.20;98.30;;;;;;5067256;23;20219;-81
2021/04/24 02:29:25;;;;;;;17.00;10.07;;;5.30;98.30;;;;;;5066039;23;20385;-81
2021/04/24 02:31:28;;;;;;;22.80;11.07;;;5.30;98.30;;;;;;5067027;23;20456;-81
2021/04/24 02:33:30;;;;;;;19.30;12.10;;;5.30;98.30;;;;;;5066907;23;20212;-81
2021/04/24 02:35:40;;;;;;;17.90;10.52;;;5.20;98.30;;;;;;5074579;23;20207;-81
2021/04/24 02:37:41;;;;;;;20.13;11.75;;;5.20;98.30;;;;;;5074349;23;20206;-81
2021/04/24 02:39:45;;;;;;;17.63;11.00;;;5.10;98.30;;;;;;5066237;23;20547;-81
2021/04/24 02:41:47;;;;;;;14.35;10.15;;;5.10;98.30;;;;;;5074129;23;20209;-81
2021/04/24 02:43:49;;;;;;;18.50;12.15;;;5.10;98.30;;;;;;5075169;23;20211;-81
2021/04/24 02:45:53;;;;;;;20.20;11.98;;;5.10;98.30;;;;;;5074865;23;20204;-82
2021/04/24 02:47:55;;;;;;;83.35;53.28;;;5.20;98.30;;;;;;5066896;23;20299;-80
2021/04/24 02:49:57;;;;;;;49.00;28.52;;;5.30;98.30;;;;;;5067314;23;20244;-81
2021/04/24 02:52:01;;;;;;;31.35;19.27;;;5.30;98.30;;;;;;5065569;23;20227;-80
2021/04/24 02:54:03;;;;;;;21.63;12.60;;;5.30;98.30;;;;;;5067353;23;20205;-81
2021/04/24 02:56:05;;;;;;;17.85;10.45;;;5.40;98.30;;;;;;5067079;23;20215;-80
2021/04/24 02:58:07;;;;;;;19.55;10.55;;;5.40;98.30;;;;;;5067535;23;20211;-80
2021/04/24 03:00:13;;;;;;;19.38;10.95;;;5.40;98.30;;;;;;5076895;23;20206;-81
2021/04/24 03:02:16;;;;;;;15.60;9.82;;;5.60;98.30;;;;;;5076935;23;20212;-81
2021/04/24 03:04:19;;;;;;;15.50;10.37;;;5.70;98.30;;;;;;5068917;23;20235;-81
2021/04/24 03:06:21;;;;;;;19.90;10.67;;;5.80;98.30;;;;;;5068760;23;20461;-81
2021/04/24 03:08:22;;;;;;;19.23;11.37;;;5.90;98.30;;;;;;5068526;23;20461;-81
2021/04/24 03:10:25;;;;;;;21.23;10.17;;;6.00;98.30;;;;;;5066841;23;20460;-81
2021/04/24 03:12:27;;;;;;;15.33;8.93;;;6.10;98.30;;;;;;5067753;23;20971;-81
2021/04/24 03:14:29;;;;;;;19.73;10.33;;;6.20;98.30;;;;;;5076178;23;20449;-81
2021/04/24 03:16:31;;;;;;;14.13;9.47;;;6.30;98.30;;;;;;5067652;23;20457;-81
2021/04/24 03:18:34;;;;;;;14.23;7.80;;;6.40;98.30;;;;;;5075036;23;20447;-81
2021/04/24 03:20:36;;;;;;;17.00;9.70;;;6.40;98.30;;;;;;5075256;23;20454;-82
2021/04/24 03:22:38;;;;;;;21.43;9.40;;;6.50;98.30;;;;;;5066560;23;20516;-81
2021/04/24 03:24:40;;;;;;;12.50;8.20;;;6.40;98.30;;;;;;5068789;23;20460;-81
2021/04/24 03:26:42;;;;;;;17.77;8.90;;;6.40;98.30;;;;;;5076859;23;20450;-81
2021/04/24 03:28:44;;;;;;;16.80;9.43;;;6.40;98.30;;;;;;5067764;23;20451;-81
2021/04/24 03:30:46;;;;;;;18.60;8.73;;;6.20;98.30;;;;;;5067182;23;20462;-81
2021/04/24 03:32:48;;;;;;;16.73;8.67;;;6.00;98.30;;;;;;5067496;23;20529;-81
2021/04/24 03:34:51;;;;;;;19.73;9.10;;;5.90;98.30;;;;;;5075208;23;20512;-81
2021/04/24 03:36:53;;;;;;;17.10;9.40;;;5.90;98.30;;;;;;5068238;23;20799;-81
2021/04/24 03:38:55;;;;;;;17.50;8.97;;;5.90;98.30;;;;;;5074895;23;20457;-81
2021/04/24 03:40:57;;;;;;;15.60;10.33;;;6.00;98.30;;;;;;5074792;23;20817;-81
2021/04/24 03:42:59;;;;;;;23.27;10.13;;;6.00;98.30;;;;;;5076131;23;20773;-81
2021/04/24 03:45:01;;;;;;;14.30;8.63;;;6.10;98.30;;;;;;5067915;23;20474;-81
2021/04/24 03:47:03;;;;;;;20.00;9.70;;;6.10;98.30;;;;;;5067510;23;20454;-81
2021/04/24 03:49:05;;;;;;;13.53;8.67;;;6.20;98.30;;;;;;5068833;23;20525;-81
2021/04/24 03:51:07;;;;;;;13.17;8.73;;;6.30;98.30;;;;;;5068050;23;20450;-81
2021/04/24 03:53:09;;;;;;;15.60;9.03;;;6.30;98.30;;;;;;5067289;23;20462;-82
2021/04/24 03:55:12;;;;;;;13.47;7.20;;;6.30;98.30;;;;;;5075098;23;20538;-81
2021/04/24 03:57:14;;;;;;;17.23;8.87;;;6.30;98.30;;;;;;5067031;23;20513;-81
2021/04/24 03:59:16;;;;;;;13.33;8.07;;;6.30;98.30;;;;;;5066929;23;20917;-81
2021/04/24 04:01:18;;;;;;;16.50;9.07;;;6.20;98.30;;;;;;5067227;23;20462;-81
2021/04/24 04:03:20;;;;;;;17.00;7.90;;;6.20;98.30;;;;;;5075371;23;20466;-81
2021/04/24 04:05:23;;;;;;;15.53;9.33;;;6.20;98.30;;;;;;5066601;23;20459;-80
2021/04/24 04:07:26;;;;;;;18.60;10.60;;;6.30;98.30;;;;;;5067759;23;20470;-80
2021/04/24 04:09:28;;;;;;;11.30;6.83;;;6.20;98.30;;;;;;5067036;23;20465;-81
2021/04/24 04:11:29;;;;;;;14.83;7.47;;;6.30;98.30;;;;;;5066911;23;20496;-81
2021/04/24 04:13:31;;;;;;;13.57;8.37;;;6.30;98.30;;;;;;5066857;23;20463;-81
2021/04/24 04:15:36;;;;;;;12.60;7.20;;;6.30;98.30;;;;;;5066710;23;20765;-81
2021/04/24 04:17:38;;;;;;;13.53;7.73;;;6.20;98.30;;;;;;5066919;23;20459;-80
2021/04/24 04:19:40;;;;;;;14.70;7.63;;;6.20;98.30;;;;;;5067552;23;20466;-80
2021/04/24 04:21:43;;;;;;;12.93;7.70;;;6.20;98.30;;;;;;5066000;23;20468;-80
2021/04/24 04:23:46;;;;;;;17.53;9.40;;;6.30;98.30;;;;;;5068094;23;21071;-80
2021/04/24 04:25:50;;;;;;;12.90;8.63;;;6.20;98.30;;;;;;5067830;23;20510;-81
2021/04/24 04:27:52;;;;;;;17.80;9.57;;;6.10;98.30;;;;;;5067180;23;21023;-82
2021/04/24 04:29:53;;;;;;;12.73;8.10;;;6.10;98.30;;;;;;5067094;23;20453;-81
2021/04/24 04:31:55;;;;;;;10.73;7.20;;;6.10;98.30;;;;;;5067244;23;20975;-81
2021/04/24 04:33:57;;;;;;;16.80;9.20;;;6.10;98.30;;;;;;5074733;23;20956;-81
2021/04/24 04:36:04;;;;;;;14.67;8.40;;;6.20;98.30;;;;;;5075110;23;20463;-81
2021/04/24 04:38:07;;;;;;;14.27;9.53;;;6.10;98.30;;;;;;5075206;23;20445;-81
2021/04/24 04:40:12;;;;;;;13.47;8.03;;;6.10;98.30;;;;;;5066493;23;20500;-81
2021/04/24 04:42:14;;;;;;;16.93;8.23;;;6.00;98.30;;;;;;5066216;23;20470;-81
2021/04/24 04:44:15;;;;;;;13.80;7.97;;;6.10;98.30;;;;;;5073771;23;20456;-81
2021/04/24 04:46:18;;;;;;;13.87;7.47;;;6.10;98.30;;;;;;5065191;23;20481;-81
2021/04/24 04:48:20;;;;;;;15.27;8.93;;;6.20;98.30;;;;;;5072815;23;20944;-81
2021/04/24 04:50:24;;;;;;;12.50;8.07;;;6.10;98.30;;;;;;5066168;23;20545;-81
2021/04/24 04:52:26;;;;;;;15.40;8.13;;;6.10;98.30;;;;;;5075044;23;20445;-81
2021/04/24 04:54:30;;;;;;;10.73;7.13;;;6.10;98.30;;;;;;5075658;23;20482;-81
2021/04/24 04:56:33;;;;;;;12.93;8.77;;;6.10;98.30;;;;;;5076104;23;20450;-81
2021/04/24 04:58:35;;;;;;;13.03;7.93;;;6.20;98.30;;;;;;5067422;23;20814;-81
2021/04/24 05:00:37;;;;;;;12.60;7.40;;;6.30;98.30;;;;;;5068941;23;20514;-81
2021/04/24 05:02:40;;;;;;;15.27;7.97;;;6.30;98.30;;;;;;5068443;23;20462;-81
2021/04/24 05:04:41;;;;;;;16.80;7.37;;;6.30;98.30;;;;;;5068886;23;20469;-81
2021/04/24 05:06:43;;;;;;;14.00;7.83;;;6.20;98.30;;;;;;5068723;23;21283;-81
2021/04/24 05:08:45;;;;;;;19.27;7.57;;;6.30;98.30;;;;;;5068144;23;20555;-81
2021/04/24 05:10:47;;;;;;;17.30;8.40;;;6.50;98.30;;;;;;5076743;23;20454;-82
2021/04/24 05:12:50;;;;;;;19.63;8.63;;;6.60;98.30;;;;;;5076935;23;20454;-82
2021/04/24 05:14:52;;;;;;;13.60;8.00;;;6.50;98.30;;;;;;5077094;23;20769;-81
2021/04/24 05:16:54;;;;;;;11.77;6.80;;;6.50;98.30;;;;;;5068702;23;20466;-81
2021/04/24 05:18:58;;;;;;;20.83;6.77;;;6.40;98.30;;;;;;5068456;23;20795;-81
2021/04/24 05:21:00;;;;;;;14.33;7.17;;;6.50;98.30;;;;;;5068437;23;20461;-81
2021/04/24 05:23:02;;;;;;;14.03;7.50;;;6.60;98.30;;;;;;5068976;23;20568;-81
2021/04/24 05:25:06;;;;;;;8.67;6.40;;;6.60;98.30;;;;;;5068916;23;20558;-81
2021/04/24 05:27:08;;;;;;;13.77;6.27;;;6.60;98.30;;;;;;5068659;23;20494;-81
2021/04/24 05:29:11;;;;;;;15.37;9.00;;;6.60;98.30;;;;;;5069269;23;20455;-81
2021/04/24 05:31:12;;;;;;;10.50;7.00;;;6.60;98.30;;;;;;5077018;23;20455;-80
2021/04/24 05:33:14;;;;;;;14.37;7.10;;;6.60;98.30;;;;;;5069316;23;20754;-82
2021/04/24 05:35:17;;;;;;;10.33;7.03;;;6.70;98.30;;;;;;5068966;23;20463;-81
2021/04/24 05:37:19;;;;;;;11.70;6.90;;;6.80;98.30;;;;;;5068270;23;20459;-81
2021/04/24 05:39:21;;;;;;;21.50;13.10;;;7.00;98.30;;;;;;5077297;23;20422;-81
2021/04/24 05:41:23;;;;;;;27.53;14.80;;;7.10;98.30;;;;;;5077589;23;20486;-81
2021/04/24 05:43:25;;;;;;;83.57;41.93;;;7.20;98.30;;;;;;5069223;23;20462;-82
2021/04/24 05:45:28;;;;;;;23.13;12.07;;;7.30;98.30;;;;;;5069879;23;20786;-82
2021/04/24 05:47:30;;;;;;;11.23;5.93;;;7.40;98.30;;;;;;5077836;23;20891;-81
2021/04/24 05:49:33;;;;;;;12.20;6.10;;;7.50;98.30;;;;;;5069880;23;20459;-82
2021/04/24 05:51:35;;;;;;;22.90;12.87;;;7.40;98.30;;;;;;5069950;23;20559;-81
2021/04/24 05:53:37;;;;;;;26.60;12.60;;;7.40;98.30;;;;;;5077825;23;20535;-81
2021/04/24 05:55:39;;;;;;;67.40;34.10;;;7.40;98.30;;;;;;5069267;23;20455;-81
2021/04/24 05:57:41;;;;;;;15.60;8.00;;;7.40;98.30;;;;;;5069937;23;20456;-81
2021/04/24 05:59:43;;;;;;;11.50;5.90;;;7.50;98.30;;;;;;5070253;23;20456;-81
2021/04/24 06:01:46;;;;;;;12.10;5.77;;;7.70;98.30;;;;;;5077659;23;20459;-81
2021/04/24 06:03:48;;;;;;;10.70;6.13;;;7.80;98.30;;;;;;5070571;23;20527;-82
2021/04/24 06:05:50;;;;;;;13.27;5.40;;;7.90;98.30;;;;;;5078179;23;20459;-81
2021/04/24 06:07:52;;;;;;;13.73;6.83;;;8.00;98.30;;;;;;5078467;23;20935;-82
2021/04/24 06:09:54;;;;;;;12.53;5.40;;;8.10;98.30;;;;;;5068852;23;20478;-82
2021/04/24 06:11:56;;;;;;;10.43;5.03;;;8.10;98.30;;;;;;5077156;23;20506;-82
2021/04/24 06:13:58;;;;;;;15.77;6.57;;;8.10;98.30;;;;;;5066793;23;20460;-82
2021/04/24 06:16:00;;;;;;;11.13;6.03;;;8.10;98.30;;;;;;5069126;23;20791;-82
2021/04/24 06:18:03;;;;;;;14.00;6.30;;;8.10;98.30;;;;;;5068984;23;20462;-82
2021/04/24 06:20:07;;;;;;;18.13;5.90;;;8.20;98.30;;;;;;5076752;23;20835;-81
2021/04/24 06:22:09;;;;;;;12.53;5.60;;;8.20;98.30;;;;;;5068142;23;20518;-81
2021/04/24 06:24:11;;;;;;;9.23;4.63;;;8.30;98.30;;;;;;5077325;23;20448;-81
2021/04/24 06:26:12;;;;;;;12.57;4.80;;;8.40;98.30;;;;;;5076069;23;20444;-81
2021/04/24 06:28:14;;;;;;;12.33;5.43;;;8.40;98.30;;;;;;5075615;23;20459;-80
2021/04/24 06:30:20;;;;;;;14.60;5.43;;;8.50;98.30;;;;;;5067700;23;20452;-81
2021/04/24 06:32:22;;;;;;;12.13;4.90;;;8.60;98.30;;;;;;5069086;23;20494;-80
2021/04/24 06:34:24;;;;;;;11.47;6.00;;;8.70;98.30;;;;;;5078022;23;20949;-80
2021/04/24 06:36:26;;;;;;;22.93;5.40;;;8.80;98.30;;;;;;5069182;23;20455;-80
2021/04/24 06:38:28;;;;;;;13.27;6.40;;;8.90;98.30;;;;;;5077497;23;20459;-81
2021/04/24 06:40:30;;;;;;;12.63;5.10;;;9.10;98.30;;;;;;5077975;23;20444;-80
2021/04/24 06:42:33;;;;;;;12.77;5.03;;;9.20;98.30;;;;;;5078145;23;20456;-80
2021/04/24 06:44:34;;;;;;;20.87;7.10;;;9.10;98.30;;;;;;5070049;23;20520;-79
2021/04/24 06:46:36;;;;;;;17.50;5.23;;;9.00;98.30;;;;;;5069470;23;20495;-80
2021/04/24 06:48:38;;;;;;;10.83;6.10;;;9.10;98.30;;;;;;5076728;23;20451;-80
2021/04/24 06:50:41;;;;;;;11.67;5.00;;;9.10;98.30;;;;;;5077560;23;20461;-80
2021/04/24 06:52:43;;;;;;;15.77;6.20;;;9.20;98.30;;;;;;5076676;23;20419;-80
2021/04/24 06:54:45;;;;;;;10.73;5.60;;;9.30;98.30;;;;;;5068760;23;20456;-80
2021/04/24 06:56:47;;;;;;;9.87;5.60;;;9.50;98.30;;;;;;5065512;23;20455;-80
2021/04/24 06:58:49;;;;;;;8.93;5.10;;;9.60;98.30;;;;;;5075839;23;20773;-80
2021/04/24 07:00:51;;;;;;;14.93;6.73;;;9.60;98.30;;;;;;5068353;23;20731;-80
2021/04/24 07:02:53;;;;;;;14.47;5.37;;;9.80;98.30;;;;;;5068868;23;20488;-80
2021/04/24 07:04:55;;;;;;;22.47;7.00;;;9.90;98.30;;;;;;5069002;23;20459;-80
2021/04/24 07:06:57;;;;;;;14.60;5.83;;;9.90;98.30;;;;;;5068821;23;20456;-80
2021/04/24 07:09:00;;;;;;;11.67;5.37;;;9.90;98.30;;;;;;5076465;23;20458;-80
2021/04/24 07:11:02;;;;;;;10.00;5.27;;;9.90;98.30;;;;;;5068196;23;20442;-80
2021/04/24 07:13:06;;;;;;;12.57;5.07;;;10.00;98.30;;;;;;5076693;23;20498;-80
2021/04/24 07:15:10;;;;;;;25.50;13.27;;;10.00;98.30;;;;;;5068059;23;20459;-80
2021/04/24 07:17:12;;;;;;;80.47;37.77;;;10.00;98.30;;;;;;5068557;23;20458;-80
2021/04/24 07:19:15;;;;;;;19.07;10.43;;;10.30;98.30;;;;;;5076301;23;20450;-80
2021/04/24 07:21:17;;;;;;;15.67;9.23;;;10.40;98.30;;;;;;5076785;23;20459;-80
2021/04/24 07:23:20;;;;;;;20.80;8.93;;;10.50;98.30;;;;;;5077040;23;20457;-80
2021/04/24 07:25:22;;;;;;;91.80;42.87;;;10.70;98.30;;;;;;5068632;23;20777;-80
2021/04/24 07:27:24;;;;;;;109.27;53.10;;;10.80;98.30;;;;;;5068254;23;20499;-80
2021/04/24 07:29:26;;;;;;;32.03;17.47;;;11.00;98.30;;;;;;5067786;23;21231;-80
2021/04/24 07:31:29;;;;;;;12.60;7.20;;;11.20;98.30;;;;;;5074967;23;20450;-80
2021/04/24 07:33:31;;;;;;;16.37;9.40;;;11.10;97.20;;;;;;5076504;23;20457;-80
2021/04/24 07:35:33;;;;;;;13.90;8.47;;;11.00;97.20;;;;;;5068586;23;20433;-80
2021/04/24 07:37:35;;;;;;;13.70;7.43;;;11.10;97.60;;;;;;5068236;23;20438;-82
2021/04/24 07:39:38;;;;;;;18.50;6.90;;;11.30;96.80;;;;;;5067719;23;20455;-79
2021/04/24 07:41:40;;;;;;;35.47;14.53;;;11.40;96.90;;;;;;5067955;23;20456;-80
2021/04/24 07:43:44;;;;;;;30.10;13.73;;;11.40;96.70;;;;;;5068765;23;20774;-82
2021/04/24 07:45:50;;;;;;;46.70;24.93;;;11.50;96.70;;;;;;5075986;23;20433;-81
2021/04/24 07:47:53;;;;;;;43.33;24.47;;;11.70;96.80;;;;;;5076399;23;21091;-81
2021/04/24 07:49:58;;;;;;;24.47;13.00;;;11.80;95.60;;;;;;5068887;23;20924;-81
2021/04/24 07:52:03;;;;;;;23.00;13.20;;;12.00;95.00;;;;;;5051324;23;20422;-81
2021/04/24 07:54:05;;;;;;;19.60;6.57;;;12.10;94.60;;;;;;5076891;23;20448;-82
2021/04/24 07:56:07;;;;;;;14.10;5.90;;;12.20;93.60;;;;;;5068703;23;20433;-84
2021/04/24 07:58:10;;;;;;;16.50;5.67;;;12.10;92.30;;;;;;5068960;23;20480;-82
2021/04/24 08:00:13;;;;;;;14.93;6.77;;;11.80;92.00;;;;;;5077378;23;20452;-82
2021/04/24 08:02:15;;;;;;;64.87;28.50;;;11.70;92.90;;;;;;5068877;23;20439;-81
2021/04/24 08:04:17;;;;;;;68.60;32.77;;;11.70;93.00;;;;;;5069022;23;20452;-81
2021/04/24 08:06:19;;;;;;;27.87;15.73;;;11.70;93.60;;;;;;5077685;23;20466;-82
2021/04/24 08:08:24;;;;;;;18.63;10.20;;;11.90;93.60;;;;;;5069475;23;20459;-82
2021/04/24 08:10:26;;;;;;;20.67;9.97;;;12.10;93.20;;;;;;5076234;23;20985;-83
2021/04/24 08:12:29;;;;;;;14.27;6.80;;;12.20;92.60;;;;;;5066952;23;20460;-84
2021/04/24 08:14:32;;;;;;;17.17;6.67;;;12.40;93.10;;;;;;5075733;23;20437;-83
2021/04/24 08:16:35;;;;;;;18.40;6.90;;;12.70;92.60;;;;;;5067457;23;20523;-83
2021/04/24 08:18:37;;;;;;;30.50;16.10;;;12.80;91.90;;;;;;5066453;23;20456;-83
2021/04/24 08:20:39;;;;;;;18.77;10.57;;;12.70;91.00;;;;;;5067186;23;20466;-83
2021/04/24 08:22:41;;;;;;;40.43;23.50;;;12.70;89.10;;;;;;5076000;23;20452;-83
2021/04/24 08:24:43;;;;;;;30.47;15.43;;;12.70;89.20;;;;;;5068162;23;20451;-82
2021/04/24 08:26:45;;;;;;;16.20;10.83;;;12.80;89.00;;;;;;5076797;23;21163;-81
2021/04/24 08:28:48;;;;;;;16.60;8.50;;;13.00;88.90;;;;;;5067258;23;20561;-82
2021/04/24 08:30:50;;;;;;;13.90;6.60;;;13.20;88.20;;;;;;5076435;23;20448;-83
2021/04/24 08:32:52;;;;;;;14.10;6.53;;;13.40;87.50;;;;;;5075555;23;20574;-83
2021/04/24 08:34:54;;;;;;;12.37;5.93;;;13.60;87.60;;;;;;5075800;23;20466;-82
2021/04/24 08:36:56;;;;;;;10.90;5.07;;;13.70;86.20;;;;;;5067613;23;20469;-81
2021/04/24 08:39:00;;;;;;;12.20;7.40;;;13.90;86.50;;;;;;5075765;23;20444;-82
2021/04/24 08:41:03;;;;;;;12.57;5.93;;;13.90;85.40;;;;;;5077418;23;20443;-82
2021/04/24 08:43:05;;;;;;;7.73;4.70;;;13.90;84.50;;;;;;5077235;23;20459;-83
2021/04/24 08:45:17;;;;;;;13.03;5.10;;;14.10;84.00;;;;;;5067051;23;20456;-82
2021/04/24 08:47:21;;;;;;;12.43;5.33;;;14.00;83.90;;;;;;5069007;23;20486;-82
2021/04/24 08:49:24;;;;;;;10.90;5.10;;;14.20;83.50;;;;;;5067690;23;20479;-80
2021/04/24 08:51:28;;;;;;;12.20;5.47;;;14.30;83.20;;;;;;5076344;23;20444;-81
2021/04/24 08:53:30;;;;;;;14.03;5.30;;;14.40;82.20;;;;;;5070388;23;20483;-82
2021/04/24 08:55:34;;;;;;;11.63;5.40;;;14.40;82.30;;;;;;5070419;23;20516;-83
2021/04/24 08:57:37;;;;;;;8.80;4.60;;;14.30;82.30;;;;;;5078855;23;20448;-81
2021/04/24 08:59:39;;;;;;;10.80;5.63;;;14.10;82.20;;;;;;5071099;23;20452;-83
2021/04/24 09:01:42;;;;;;;7.60;4.80;;;14.10;82.70;;;;;;5072198;23;20455;-82
2021/04/24 09:03:45;;;;;;;11.60;4.60;;;14.10;81.40;;;;;;5079738;23;20487;-82
2021/04/24 09:05:48;;;;;;;11.23;4.37;;;14.10;81.60;;;;;;5072036;23;20523;-83
2021/04/24 09:07:58;;;;;;;7.00;4.20;;;14.20;81.70;;;;;;5071955;23;20456;-83
2021/04/24 09:10:00;;;;;;;7.60;4.50;;;14.40;79.90;;;;;;5078731;23;20458;-81
2021/04/24 09:12:03;;;;;;;8.70;4.70;;;14.70;79.50;;;;;;5068579;23;20474;-82
2021/04/24 09:14:06;;;;;;;13.93;5.37;;;14.70;79.60;;;;;;5069055;23;20575;-82
2021/04/24 09:16:22;;;;;;;14.53;4.73;;;14.80;79.50;;;;;;5068675;23;20459;-80
2021/04/24 09:18:27;;;;;;;10.70;4.63;;;14.80;78.60;;;;;;5075179;23;20957;-82
2021/04/24 09:20:31;;;;;;;6.90;4.30;;;14.90;78.90;;;;;;5076901;23;20450;-83
2021/04/24 09:22:33;;;;;;;8.23;4.47;;;15.10;77.90;;;;;;5067804;23;20456;-83
2021/04/24 09:24:38;;;;;;;8.90;4.93;;;15.20;78.40;;;;;;5068009;23;20502;-82
2021/04/24 09:26:46;;;;;;;7.00;4.43;;;15.30;77.20;;;;;;5076056;23;20456;-84
2021/04/24 09:28:59;;;;;;;8.70;5.03;;;15.30;76.70;;;;;;5075388;23;20952;-83
2021/04/24 09:31:02;;;;;;;9.20;4.83;;;15.50;77.10;;;;;;5075522;23;20458;-85
2021/04/24 09:33:28;;;;;;;9.77;4.50;;;15.70;76.60;;;;;;5066402;23;20458;-84
2021/04/24 09:35:43;;;;;;;7.73;4.60;;;15.70;74.10;;;;;;5065007;23;20460;-83
2021/04/24 09:37:54;;;;;;;9.53;5.20;;;15.50;74.50;;;;;;5065838;23;20456;-85
2021/04/24 09:39:56;;;;;;;10.20;4.60;;;15.60;75.80;;;;;;5074178;23;20463;-83
2021/04/24 09:41:58;;;;;;;7.47;4.43;;;15.80;76.00;;;;;;5067442;23;20535;-85
2021/04/24 09:44:03;;;;;;;8.23;4.60;;;15.90;75.00;;;;;;5067022;23;20786;-85
2021/04/24 09:46:08;;;;;;;9.40;5.53;;;16.20;74.70;;;;;;5074762;23;20452;-85
2021/04/24 09:48:19;;;;;;;8.90;4.77;;;16.50;74.40;;;;;;5065832;23;20479;-85
2021/04/24 09:50:28;;;;;;;8.73;4.63;;;16.40;73.10;;;;;;5066348;23;20766;-86
2021/04/24 09:53:04;;;;;;;8.80;4.47;;;16.10;73.10;;;;;;5066594;23;20427;-85
2021/04/24 09:55:13;;;;;;;8.40;4.37;;;16.00;73.30;;;;;;5062674;23;20542;-85
2021/04/24 09:57:20;;;;;;;9.07;4.63;;;15.80;73.20;;;;;;5074185;23;20443;-85
2021/04/24 09:59:22;;;;;;;6.90;4.23;;;15.90;73.80;;;;;;5066091;23;20815;-86
2021/04/24 10:01:25;;;;;;;9.93;5.37;;;16.00;73.20;;;;;;5074205;23;20448;-86
2021/04/24 10:03:38;;;;;;;6.97;3.93;;;16.20;73.60;;;;;;5074624;23;20814;-85
2021/04/24 10:05:40;;;;;;;5.97;3.80;;;16.30;71.30;;;;;;5066416;23;20451;-86
2021/04/24 10:07:43;;;;;;;6.40;4.10;;;16.30;71.10;;;;;;5066620;23;20448;-85
2021/04/24 10:09:45;;;;;;;5.20;3.70;;;16.70;69.90;;;;;;5067115;23;20491;-85
2021/04/24 10:11:51;;;;;;;7.30;4.00;;;17.00;69.70;;;;;;5068296;23;20467;-83
2021/04/24 10:13:53;;;;;;;8.40;4.23;;;17.10;67.70;;;;;;5075118;23;20850;-84
2021/04/24 10:15:55;;;;;;;6.50;5.07;;;16.90;64.50;;;;;;5074683;23;20484;-85
2021/04/24 10:17:57;;;;;;;11.40;7.73;;;16.60;65.60;;;;;;5065970;23;20820;-84
2021/04/24 10:20:01;;;;;;;15.10;7.40;;;16.30;67.10;;;;;;5074591;23;20850;-84
2021/04/24 10:22:05;;;;;;;11.60;5.47;;;16.30;68.60;;;;;;5067274;23;20473;-84
2021/04/24 10:24:09;;;;;;;7.37;4.33;;;16.30;68.10;;;;;;5076534;23;20452;-84
2021/04/24 10:26:11;;;;;;;7.10;4.10;;;16.40;68.40;;;;;;5076398;23;20490;-82
2021/04/24 10:28:16;;;;;;;5.77;3.60;;;16.50;67.80;;;;;;5067661;23;20535;-84
2021/04/24 10:30:22;;;;;;;6.43;4.80;;;17.00;67.10;;;;;;5068551;23;20954;-84
2021/04/24 10:32:25;;;;;;;6.10;4.13;;;17.40;65.60;;;;;;5076524;23;20451;-84
2021/04/24 10:34:27;;;;;;;5.37;3.63;;;17.40;64.80;;;;;;5073424;23;20510;-84
2021/04/24 10:36:29;;;;;;;6.73;3.83;;;17.30;64.10;;;;;;5075123;23;20448;-84
2021/04/24 10:38:32;;;;;;;6.40;3.00;;;17.10;62.20;;;;;;5065637;23;20857;-84
2021/04/24 10:40:45;;;;;;;5.80;3.33;;;17.10;61.40;;;;;;5074222;23;20534;-84